Popsquash, Vermont
Current Conditions -  °F | °C
As of 10:55 PM on Wednesday 22 Oct 2014 (Local Time) from KFSO Reporting Station
Overcast Overcast  
Wind Chill: 40°   Ceiling: 9000
Heat Index: 46°   Visibility: 10mi
Dew Point: 37°   Wind: 12mph
Humidity: 71%   Direction: 10°N
Pressure: 30.14"   Gusts: 18mph
Location:  44.9002°N, 73.1493°W
Report Text: KFSO 230255Z AUTO 01010G16KT 10SM SCT038 OVC090 08/03 A3014 RMK AO2 T00750025
Loading
Personal Weather Stations






























Interactive Weather Map New forecast layout! Learn more

10-Day Weather Forecast

Advertisements
Track Severe Weather on mobile